sensor_id;sensor_type;location;lat;lon;timestamp;P1;durP1;ratioP1;P2;durP2;ratioP2
72284;SDS011;60220;53.552;10.092;2022-10-31T00:01:44;26.40;;;17.63;;
72284;SDS011;60220;53.552;10.092;2022-10-31T00:04:12;26.58;;;18.15;;
72284;SDS011;60220;53.552;10.092;2022-10-31T00:06:38;25.08;;;16.70;;
72284;SDS011;60220;53.552;10.092;2022-10-31T00:09:09;27.17;;;17.40;;
72284;SDS011;60220;53.552;10.092;2022-10-31T00:11:35;23.63;;;16.15;;
72284;SDS011;60220;53.552;10.092;2022-10-31T00:14:05;33.60;;;16.50;;
72284;SDS011;60220;53.552;10.092;2022-10-31T00:16:32;22.73;;;14.60;;
72284;SDS011;60220;53.552;10.092;2022-10-31T00:18:59;36.03;;;16.50;;
72284;SDS011;60220;53.552;10.092;2022-10-31T00:21:29;28.45;;;15.57;;
72284;SDS011;60220;53.552;10.092;2022-10-31T00:23:56;26.52;;;15.25;;
72284;SDS011;60220;53.552;10.092;2022-10-31T00:26:23;21.50;;;14.32;;
72284;SDS011;60220;53.552;10.092;2022-10-31T00:28:53;25.70;;;15.30;;
72284;SDS011;60220;53.552;10.092;2022-10-31T00:31:19;23.63;;;15.63;;
72284;SDS011;60220;53.552;10.092;2022-10-31T00:33:46;24.75;;;15.57;;
72284;SDS011;60220;53.552;10.092;2022-10-31T00:36:14;24.50;;;15.55;;
72284;SDS011;60220;53.552;10.092;2022-10-31T00:38:44;22.33;;;14.45;;
72284;SDS011;60220;53.552;10.092;2022-10-31T00:41:12;22.58;;;14.95;;
72284;SDS011;60220;53.552;10.092;2022-10-31T00:43:40;26.02;;;14.38;;
72284;SDS011;60220;53.552;10.092;2022-10-31T00:46:06;23.92;;;14.43;;
72284;SDS011;60220;53.552;10.092;2022-10-31T00:48:35;23.30;;;15.60;;
72284;SDS011;60220;53.552;10.092;2022-10-31T00:51:01;22.02;;;15.13;;
72284;SDS011;60220;53.552;10.092;2022-10-31T00:53:28;28.50;;;15.93;;
72284;SDS011;60220;53.552;10.092;2022-10-31T00:55:58;23.67;;;14.85;;
72284;SDS011;60220;53.552;10.092;2022-10-31T00:58:25;28.50;;;16.10;;
72284;SDS011;60220;53.552;10.092;2022-10-31T01:00:54;23.02;;;15.93;;
72284;SDS011;60220;53.552;10.092;2022-10-31T01:03:21;23.50;;;14.50;;
72284;SDS011;60220;53.552;10.092;2022-10-31T01:05:56;27.65;;;15.13;;
72284;SDS011;60220;53.552;10.092;2022-10-31T01:08:23;23.05;;;14.95;;
72284;SDS011;60220;53.552;10.092;2022-10-31T01:10:58;31.33;;;17.67;;
72284;SDS011;60220;53.552;10.092;2022-10-31T01:13:26;36.85;;;17.60;;
72284;SDS011;60220;53.552;10.092;2022-10-31T01:15:53;38.08;;;18.42;;
72284;SDS011;60220;53.552;10.092;2022-10-31T01:18:20;32.20;;;17.70;;
72284;SDS011;60220;53.552;10.092;2022-10-31T01:20:46;35.45;;;19.33;;
72284;SDS011;60220;53.552;10.092;2022-10-31T01:23:15;32.63;;;18.85;;
72284;SDS011;60220;53.552;10.092;2022-10-31T01:25:42;37.35;;;20.85;;
72284;SDS011;60220;53.552;10.092;2022-10-31T01:28:10;38.40;;;19.45;;
72284;SDS011;60220;53.552;10.092;2022-10-31T01:30:37;39.08;;;19.60;;
72284;SDS011;60220;53.552;10.092;2022-10-31T01:33:03;37.22;;;19.73;;
72284;SDS011;60220;53.552;10.092;2022-10-31T01:35:32;37.17;;;19.88;;
72284;SDS011;60220;53.552;10.092;2022-10-31T01:37:59;37.03;;;20.58;;
72284;SDS011;60220;53.552;10.092;2022-10-31T01:40:28;43.63;;;21.08;;
72284;SDS011;60220;53.552;10.092;2022-10-31T01:42:56;40.88;;;22.63;;
72284;SDS011;60220;53.552;10.092;2022-10-31T01:45:23;44.50;;;22.30;;
72284;SDS011;60220;53.552;10.092;2022-10-31T01:47:50;40.20;;;20.85;;
72284;SDS011;60220;53.552;10.092;2022-10-31T01:50:21;47.30;;;23.50;;
72284;SDS011;60220;53.552;10.092;2022-10-31T01:52:54;59.72;;;25.27;;
72284;SDS011;60220;53.552;10.092;2022-10-31T01:55:22;44.80;;;24.23;;
72284;SDS011;60220;53.552;10.092;2022-10-31T01:57:53;52.85;;;24.35;;
72284;SDS011;60220;53.552;10.092;2022-10-31T02:00:27;44.78;;;24.00;;
72284;SDS011;60220;53.552;10.092;2022-10-31T02:02:54;54.53;;;25.55;;
72284;SDS011;60220;53.552;10.092;2022-10-31T02:05:22;53.13;;;25.40;;
72284;SDS011;60220;53.552;10.092;2022-10-31T02:07:54;68.95;;;26.10;;
72284;SDS011;60220;53.552;10.092;2022-10-31T02:10:23;52.70;;;26.10;;
72284;SDS011;60220;53.552;10.092;2022-10-31T02:12:50;51.25;;;25.15;;
72284;SDS011;60220;53.552;10.092;2022-10-31T02:15:21;58.63;;;26.60;;
72284;SDS011;60220;53.552;10.092;2022-10-31T02:17:49;59.35;;;25.63;;
72284;SDS011;60220;53.552;10.092;2022-10-31T02:20:17;57.58;;;25.52;;
72284;SDS011;60220;53.552;10.092;2022-10-31T02:25:53;60.10;;;25.77;;
72284;SDS011;60220;53.552;10.092;2022-10-31T02:28:49;44.88;;;23.13;;
72284;SDS011;60220;53.552;10.092;2022-10-31T02:31:30;57.95;;;25.60;;
72284;SDS011;60220;53.552;10.092;2022-10-31T02:34:08;51.50;;;25.75;;
72284;SDS011;60220;53.552;10.092;2022-10-31T02:36:43;59.22;;;25.50;;
72284;SDS011;60220;53.552;10.092;2022-10-31T02:39:18;58.03;;;25.30;;
72284;SDS011;60220;53.552;10.092;2022-10-31T02:41:51;59.80;;;26.20;;
72284;SDS011;60220;53.552;10.092;2022-10-31T02:44:22;55.92;;;25.83;;
72284;SDS011;60220;53.552;10.092;2022-10-31T02:46:59;47.50;;;24.92;;
72284;SDS011;60220;53.552;10.092;2022-10-31T02:49:31;54.92;;;26.42;;
72284;SDS011;60220;53.552;10.092;2022-10-31T02:52:00;45.03;;;24.77;;
72284;SDS011;60220;53.552;10.092;2022-10-31T02:54:27;53.03;;;24.67;;
72284;SDS011;60220;53.552;10.092;2022-10-31T02:56:57;55.35;;;23.45;;
72284;SDS011;60220;53.552;10.092;2022-10-31T03:04:40;52.80;;;24.77;;
72284;SDS011;60220;53.552;10.092;2022-10-31T03:07:21;54.30;;;23.42;;
72284;SDS011;60220;53.552;10.092;2022-10-31T03:10:01;56.55;;;23.80;;
72284;SDS011;60220;53.552;10.092;2022-10-31T03:12:33;54.63;;;23.83;;
72284;SDS011;60220;53.552;10.092;2022-10-31T03:15:06;49.47;;;23.55;;
72284;SDS011;60220;53.552;10.092;2022-10-31T03:17:41;53.03;;;25.38;;
72284;SDS011;60220;53.552;10.092;2022-10-31T03:20:17;55.38;;;24.17;;
72284;SDS011;60220;53.552;10.092;2022-10-31T03:22:50;51.53;;;23.80;;
72284;SDS011;60220;53.552;10.092;2022-10-31T03:25:18;48.47;;;24.08;;
72284;SDS011;60220;53.552;10.092;2022-10-31T03:27:47;44.88;;;22.83;;
72284;SDS011;60220;53.552;10.092;2022-10-31T03:30:16;56.75;;;22.10;;
72284;SDS011;60220;53.552;10.092;2022-10-31T03:32:43;47.25;;;23.65;;
72284;SDS011;60220;53.552;10.092;2022-10-31T03:35:17;45.00;;;23.00;;
72284;SDS011;60220;53.552;10.092;2022-10-31T03:37:47;53.50;;;23.27;;
72284;SDS011;60220;53.552;10.092;2022-10-31T03:40:15;50.15;;;23.45;;
72284;SDS011;60220;53.552;10.092;2022-10-31T03:42:46;49.30;;;22.95;;
72284;SDS011;60220;53.552;10.092;2022-10-31T03:45:20;55.25;;;24.42;;
72284;SDS011;60220;53.552;10.092;2022-10-31T03:47:50;50.75;;;23.20;;
72284;SDS011;60220;53.552;10.092;2022-10-31T03:50:20;45.00;;;22.85;;
72284;SDS011;60220;53.552;10.092;2022-10-31T03:52:50;44.00;;;22.92;;
72284;SDS011;60220;53.552;10.092;2022-10-31T03:55:24;49.22;;;24.30;;
72284;SDS011;60220;53.552;10.092;2022-10-31T03:57:56;57.97;;;24.10;;
72284;SDS011;60220;53.552;10.092;2022-10-31T04:00:26;56.92;;;25.02;;
72284;SDS011;60220;53.552;10.092;2022-10-31T04:02:53;51.92;;;23.52;;
72284;SDS011;60220;53.552;10.092;2022-10-31T04:05:25;52.42;;;23.83;;
72284;SDS011;60220;53.552;10.092;2022-10-31T04:07:54;57.60;;;24.08;;
72284;SDS011;60220;53.552;10.092;2022-10-31T04:10:23;53.78;;;24.30;;
72284;SDS011;60220;53.552;10.092;2022-10-31T04:12:53;57.17;;;24.15;;
72284;SDS011;60220;53.552;10.092;2022-10-31T04:15:23;57.95;;;24.77;;
72284;SDS011;60220;53.552;10.092;2022-10-31T04:17:52;58.20;;;25.60;;
72284;SDS011;60220;53.552;10.092;2022-10-31T04:20:31;56.83;;;25.95;;
72284;SDS011;60220;53.552;10.092;2022-10-31T04:22:58;51.53;;;24.80;;
72284;SDS011;60220;53.552;10.092;2022-10-31T04:25:28;55.05;;;25.73;;
72284;SDS011;60220;53.552;10.092;2022-10-31T04:27:55;57.63;;;25.92;;
72284;SDS011;60220;53.552;10.092;2022-10-31T04:30:23;60.22;;;24.95;;
72284;SDS011;60220;53.552;10.092;2022-10-31T04:32:52;64.30;;;25.67;;
72284;SDS011;60220;53.552;10.092;2022-10-31T04:35:19;61.38;;;27.30;;
72284;SDS011;60220;53.552;10.092;2022-10-31T04:37:47;59.33;;;25.52;;
72284;SDS011;60220;53.552;10.092;2022-10-31T04:40:13;63.95;;;26.23;;
72284;SDS011;60220;53.552;10.092;2022-10-31T04:42:40;59.63;;;25.75;;
72284;SDS011;60220;53.552;10.092;2022-10-31T04:45:06;65.68;;;25.85;;
72284;SDS011;60220;53.552;10.092;2022-10-31T04:47:33;54.25;;;25.90;;
72284;SDS011;60220;53.552;10.092;2022-10-31T04:50:00;64.00;;;26.90;;
72284;SDS011;60220;53.552;10.092;2022-10-31T04:52:27;71.13;;;26.38;;
72284;SDS011;60220;53.552;10.092;2022-10-31T04:54:54;62.95;;;25.88;;
72284;SDS011;60220;53.552;10.092;2022-10-31T04:57:21;60.72;;;24.08;;
72284;SDS011;60220;53.552;10.092;2022-10-31T04:59:48;54.10;;;24.35;;
72284;SDS011;60220;53.552;10.092;2022-10-31T05:02:14;62.03;;;24.52;;
72284;SDS011;60220;53.552;10.092;2022-10-31T05:04:41;54.75;;;25.50;;
72284;SDS011;60220;53.552;10.092;2022-10-31T05:07:09;59.03;;;25.00;;
72284;SDS011;60220;53.552;10.092;2022-10-31T05:09:36;56.20;;;24.55;;
72284;SDS011;60220;53.552;10.092;2022-10-31T05:12:04;59.00;;;25.25;;
72284;SDS011;60220;53.552;10.092;2022-10-31T05:14:30;59.95;;;24.73;;
72284;SDS011;60220;53.552;10.092;2022-10-31T05:16:57;56.17;;;24.67;;
72284;SDS011;60220;53.552;10.092;2022-10-31T05:19:23;55.42;;;24.90;;
72284;SDS011;60220;53.552;10.092;2022-10-31T05:21:52;63.78;;;24.92;;
72284;SDS011;60220;53.552;10.092;2022-10-31T05:24:19;67.88;;;25.33;;
72284;SDS011;60220;53.552;10.092;2022-10-31T05:26:47;62.53;;;25.88;;
72284;SDS011;60220;53.552;10.092;2022-10-31T05:29:15;61.75;;;25.25;;
72284;SDS011;60220;53.552;10.092;2022-10-31T05:31:41;55.28;;;24.33;;
72284;SDS011;60220;53.552;10.092;2022-10-31T05:34:08;56.15;;;25.80;;
72284;SDS011;60220;53.552;10.092;2022-10-31T05:36:35;55.38;;;25.38;;
72284;SDS011;60220;53.552;10.092;2022-10-31T05:39:02;63.97;;;27.02;;
72284;SDS011;60220;53.552;10.092;2022-10-31T05:41:28;59.55;;;25.17;;
72284;SDS011;60220;53.552;10.092;2022-10-31T05:43:57;58.83;;;25.23;;
72284;SDS011;60220;53.552;10.092;2022-10-31T05:46:25;50.90;;;22.92;;
72284;SDS011;60220;53.552;10.092;2022-10-31T05:48:54;55.88;;;23.15;;
72284;SDS011;60220;53.552;10.092;2022-10-31T05:51:21;59.40;;;23.98;;
72284;SDS011;60220;53.552;10.092;2022-10-31T05:53:50;50.83;;;23.45;;
72284;SDS011;60220;53.552;10.092;2022-10-31T05:56:17;52.08;;;22.73;;
72284;SDS011;60220;53.552;10.092;2022-10-31T05:58:43;49.95;;;22.88;;
72284;SDS011;60220;53.552;10.092;2022-10-31T06:01:10;51.15;;;23.10;;
72284;SDS011;60220;53.552;10.092;2022-10-31T06:03:38;51.28;;;21.85;;
72284;SDS011;60220;53.552;10.092;2022-10-31T06:06:07;51.75;;;21.77;;
72284;SDS011;60220;53.552;10.092;2022-10-31T06:08:34;59.25;;;23.75;;
72284;SDS011;60220;53.552;10.092;2022-10-31T06:11:03;54.92;;;22.60;;
72284;SDS011;60220;53.552;10.092;2022-10-31T06:13:30;59.95;;;29.20;;
72284;SDS011;60220;53.552;10.092;2022-10-31T06:15:59;87.57;;;42.45;;
72284;SDS011;60220;53.552;10.092;2022-10-31T06:18:25;48.03;;;21.60;;
72284;SDS011;60220;53.552;10.092;2022-10-31T06:20:55;47.45;;;22.83;;
72284;SDS011;60220;53.552;10.092;2022-10-31T06:23:22;46.88;;;22.02;;
72284;SDS011;60220;53.552;10.092;2022-10-31T06:25:49;48.55;;;22.45;;
72284;SDS011;60220;53.552;10.092;2022-10-31T06:28:16;58.13;;;21.73;;
72284;SDS011;60220;53.552;10.092;2022-10-31T06:30:42;52.45;;;22.42;;
72284;SDS011;60220;53.552;10.092;2022-10-31T06:33:11;52.63;;;22.90;;
72284;SDS011;60220;53.552;10.092;2022-10-31T06:35:38;52.90;;;22.13;;
72284;SDS011;60220;53.552;10.092;2022-10-31T06:38:12;49.15;;;21.70;;
72284;SDS011;60220;53.552;10.092;2022-10-31T06:40:39;51.05;;;22.33;;
72284;SDS011;60220;53.552;10.092;2022-10-31T06:43:05;52.42;;;22.38;;
72284;SDS011;60220;53.552;10.092;2022-10-31T06:45:32;56.13;;;23.15;;
72284;SDS011;60220;53.552;10.092;2022-10-31T06:48:01;50.85;;;21.27;;
72284;SDS011;60220;53.552;10.092;2022-10-31T06:50:27;49.53;;;21.00;;
72284;SDS011;60220;53.552;10.092;2022-10-31T06:52:55;54.08;;;22.00;;
72284;SDS011;60220;53.552;10.092;2022-10-31T06:55:24;62.33;;;23.35;;
72284;SDS011;60220;53.552;10.092;2022-10-31T06:57:51;66.15;;;26.67;;
72284;SDS011;60220;53.552;10.092;2022-10-31T07:00:18;73.63;;;28.60;;
72284;SDS011;60220;53.552;10.092;2022-10-31T07:02:52;67.72;;;28.27;;
72284;SDS011;60220;53.552;10.092;2022-10-31T07:05:19;79.50;;;28.15;;
72284;SDS011;60220;53.552;10.092;2022-10-31T07:07:51;81.07;;;29.45;;
72284;SDS011;60220;53.552;10.092;2022-10-31T07:10:18;77.22;;;29.02;;
72284;SDS011;60220;53.552;10.092;2022-10-31T07:12:46;71.53;;;27.77;;
72284;SDS011;60220;53.552;10.092;2022-10-31T07:15:15;78.85;;;29.13;;
72284;SDS011;60220;53.552;10.092;2022-10-31T07:17:41;79.63;;;27.88;;
72284;SDS011;60220;53.552;10.092;2022-10-31T07:20:08;79.38;;;29.45;;
72284;SDS011;60220;53.552;10.092;2022-10-31T07:22:36;67.53;;;26.80;;
72284;SDS011;60220;53.552;10.092;2022-10-31T07:25:03;68.13;;;27.60;;
72284;SDS011;60220;53.552;10.092;2022-10-31T07:27:34;86.00;;;29.25;;
72284;SDS011;60220;53.552;10.092;2022-10-31T07:30:03;73.20;;;30.42;;
72284;SDS011;60220;53.552;10.092;2022-10-31T07:32:36;66.20;;;25.80;;
72284;SDS011;60220;53.552;10.092;2022-10-31T07:35:07;62.10;;;24.80;;
72284;SDS011;60220;53.552;10.092;2022-10-31T07:37:36;66.50;;;25.27;;
72284;SDS011;60220;53.552;10.092;2022-10-31T07:40:03;56.47;;;24.33;;
72284;SDS011;60220;53.552;10.092;2022-10-31T07:42:34;61.38;;;24.13;;
72284;SDS011;60220;53.552;10.092;2022-10-31T07:45:02;66.10;;;24.73;;
72284;SDS011;60220;53.552;10.092;2022-10-31T07:47:29;52.28;;;21.83;;
72284;SDS011;60220;53.552;10.092;2022-10-31T07:50:03;49.95;;;20.52;;
72284;SDS011;60220;53.552;10.092;2022-10-31T07:52:30;52.70;;;19.75;;
72284;SDS011;60220;53.552;10.092;2022-10-31T07:54:57;61.28;;;21.67;;
72284;SDS011;60220;53.552;10.092;2022-10-31T07:57:23;48.28;;;20.80;;
72284;SDS011;60220;53.552;10.092;2022-10-31T07:59:52;49.03;;;17.67;;
72284;SDS011;60220;53.552;10.092;2022-10-31T08:02:20;40.65;;;17.63;;
72284;SDS011;60220;53.552;10.092;2022-10-31T08:04:49;38.25;;;17.27;;
72284;SDS011;60220;53.552;10.092;2022-10-31T08:07:16;42.05;;;16.73;;
72284;SDS011;60220;53.552;10.092;2022-10-31T08:09:45;45.45;;;15.98;;
72284;SDS011;60220;53.552;10.092;2022-10-31T08:12:12;34.28;;;15.80;;
72284;SDS011;60220;53.552;10.092;2022-10-31T08:14:38;46.95;;;19.98;;
72284;SDS011;60220;53.552;10.092;2022-10-31T08:17:05;39.40;;;17.85;;
72284;SDS011;60220;53.552;10.092;2022-10-31T08:19:33;44.75;;;17.48;;
72284;SDS011;60220;53.552;10.092;2022-10-31T08:22:02;40.63;;;17.05;;
72284;SDS011;60220;53.552;10.092;2022-10-31T08:24:28;41.65;;;16.83;;
72284;SDS011;60220;53.552;10.092;2022-10-31T08:26:55;37.03;;;16.25;;
72284;SDS011;60220;53.552;10.092;2022-10-31T08:29:21;40.95;;;16.13;;
72284;SDS011;60220;53.552;10.092;2022-10-31T08:31:50;35.47;;;15.80;;
72284;SDS011;60220;53.552;10.092;2022-10-31T08:34:16;42.60;;;16.52;;
72284;SDS011;60220;53.552;10.092;2022-10-31T08:36:44;38.25;;;17.42;;
72284;SDS011;60220;53.552;10.092;2022-10-31T08:39:11;36.97;;;15.57;;
72284;SDS011;60220;53.552;10.092;2022-10-31T08:41:37;42.58;;;18.95;;
72284;SDS011;60220;53.552;10.092;2022-10-31T08:44:04;44.17;;;19.83;;
72284;SDS011;60220;53.552;10.092;2022-10-31T08:46:31;48.20;;;20.75;;
72284;SDS011;60220;53.552;10.092;2022-10-31T08:49:00;49.72;;;19.80;;
72284;SDS011;60220;53.552;10.092;2022-10-31T08:51:26;52.92;;;20.95;;
72284;SDS011;60220;53.552;10.092;2022-10-31T08:53:54;39.80;;;19.40;;
72284;SDS011;60220;53.552;10.092;2022-10-31T08:56:21;51.95;;;19.98;;
72284;SDS011;60220;53.552;10.092;2022-10-31T08:58:47;55.08;;;25.73;;
72284;SDS011;60220;53.552;10.092;2022-10-31T09:01:16;52.92;;;19.95;;
72284;SDS011;60220;53.552;10.092;2022-10-31T09:03:43;52.30;;;20.10;;
72284;SDS011;60220;53.552;10.092;2022-10-31T09:06:09;50.38;;;20.40;;
72284;SDS011;60220;53.552;10.092;2022-10-31T09:08:36;49.45;;;21.08;;
72284;SDS011;60220;53.552;10.092;2022-10-31T09:11:07;50.67;;;20.58;;
72284;SDS011;60220;53.552;10.092;2022-10-31T09:13:33;49.47;;;19.75;;
72284;SDS011;60220;53.552;10.092;2022-10-31T09:16:00;44.35;;;18.98;;
72284;SDS011;60220;53.552;10.092;2022-10-31T09:18:26;51.80;;;21.38;;
72284;SDS011;60220;53.552;10.092;2022-10-31T09:20:53;50.05;;;20.33;;
72284;SDS011;60220;53.552;10.092;2022-10-31T09:23:21;52.75;;;20.90;;
72284;SDS011;60220;53.552;10.092;2022-10-31T09:25:49;59.15;;;21.83;;
72284;SDS011;60220;53.552;10.092;2022-10-31T09:28:21;44.92;;;19.92;;
72284;SDS011;60220;53.552;10.092;2022-10-31T09:30:49;54.13;;;20.95;;
72284;SDS011;60220;53.552;10.092;2022-10-31T09:33:17;46.13;;;19.73;;
72284;SDS011;60220;53.552;10.092;2022-10-31T09:35:44;50.88;;;20.30;;
72284;SDS011;60220;53.552;10.092;2022-10-31T09:38:11;52.78;;;21.73;;
72284;SDS011;60220;53.552;10.092;2022-10-31T09:40:40;53.70;;;23.55;;
72284;SDS011;60220;53.552;10.092;2022-10-31T09:43:14;57.25;;;25.60;;
72284;SDS011;60220;53.552;10.092;2022-10-31T09:45:51;45.72;;;21.52;;
72284;SDS011;60220;53.552;10.092;2022-10-31T09:48:32;45.08;;;18.55;;
72284;SDS011;60220;53.552;10.092;2022-10-31T09:51:08;44.13;;;19.10;;
72284;SDS011;60220;53.552;10.092;2022-10-31T09:53:38;44.05;;;18.90;;
72284;SDS011;60220;53.552;10.092;2022-10-31T09:56:09;48.13;;;18.75;;
72284;SDS011;60220;53.552;10.092;2022-10-31T09:58:40;37.45;;;17.08;;
72284;SDS011;60220;53.552;10.092;2022-10-31T10:01:14;44.58;;;17.65;;
72284;SDS011;60220;53.552;10.092;2022-10-31T10:03:55;57.10;;;24.05;;
72284;SDS011;60220;53.552;10.092;2022-10-31T10:06:27;39.58;;;18.52;;
72284;SDS011;60220;53.552;10.092;2022-10-31T10:08:58;38.00;;;17.58;;
72284;SDS011;60220;53.552;10.092;2022-10-31T10:11:32;46.10;;;16.60;;
72284;SDS011;60220;53.552;10.092;2022-10-31T10:14:12;47.08;;;18.08;;
72284;SDS011;60220;53.552;10.092;2022-10-31T10:16:59;80.47;;;40.28;;
72284;SDS011;60220;53.552;10.092;2022-10-31T10:19:40;61.53;;;29.40;;
72284;SDS011;60220;53.552;10.092;2022-10-31T10:22:17;39.97;;;19.42;;
72284;SDS011;60220;53.552;10.092;2022-10-31T10:24:55;43.95;;;19.92;;
72284;SDS011;60220;53.552;10.092;2022-10-31T10:27:33;50.42;;;20.75;;
72284;SDS011;60220;53.552;10.092;2022-10-31T10:30:13;38.53;;;17.83;;
72284;SDS011;60220;53.552;10.092;2022-10-31T10:32:46;33.15;;;17.13;;
72284;SDS011;60220;53.552;10.092;2022-10-31T10:35:19;38.85;;;18.30;;
72284;SDS011;60220;53.552;10.092;2022-10-31T10:37:49;41.58;;;18.40;;
72284;SDS011;60220;53.552;10.092;2022-10-31T10:40:19;42.85;;;19.27;;
72284;SDS011;60220;53.552;10.092;2022-10-31T10:42:52;45.90;;;18.45;;
72284;SDS011;60220;53.552;10.092;2022-10-31T10:45:42;39.75;;;19.75;;
72284;SDS011;60220;53.552;10.092;2022-10-31T10:48:36;51.53;;;22.10;;
72284;SDS011;60220;53.552;10.092;2022-10-31T10:51:10;33.65;;;16.88;;
72284;SDS011;60220;53.552;10.092;2022-10-31T10:53:47;36.28;;;16.65;;
72284;SDS011;60220;53.552;10.092;2022-10-31T10:56:30;36.35;;;17.08;;
72284;SDS011;60220;53.552;10.092;2022-10-31T10:59:08;34.65;;;16.38;;
72284;SDS011;60220;53.552;10.092;2022-10-31T11:01:37;35.13;;;16.67;;
72284;SDS011;60220;53.552;10.092;2022-10-31T11:06:58;44.22;;;19.95;;
72284;SDS011;60220;53.552;10.092;2022-10-31T11:09:26;33.97;;;18.05;;
72284;SDS011;60220;53.552;10.092;2022-10-31T11:11:53;43.80;;;20.85;;
72284;SDS011;60220;53.552;10.092;2022-10-31T11:14:21;41.60;;;19.95;;
72284;SDS011;60220;53.552;10.092;2022-10-31T11:16:49;43.20;;;19.48;;
72284;SDS011;60220;53.552;10.092;2022-10-31T11:19:21;44.20;;;20.75;;
72284;SDS011;60220;53.552;10.092;2022-10-31T11:21:51;41.63;;;20.05;;
72284;SDS011;60220;53.552;10.092;2022-10-31T11:24:19;42.10;;;20.35;;
72284;SDS011;60220;53.552;10.092;2022-10-31T11:26:47;50.60;;;22.75;;
72284;SDS011;60220;53.552;10.092;2022-10-31T11:29:20;46.65;;;23.92;;
72284;SDS011;60220;53.552;10.092;2022-10-31T11:31:49;46.88;;;23.25;;
72284;SDS011;60220;53.552;10.092;2022-10-31T11:34:26;54.92;;;25.45;;
72284;SDS011;60220;53.552;10.092;2022-10-31T11:37:00;45.90;;;22.65;;
72284;SDS011;60220;53.552;10.092;2022-10-31T11:39:30;49.75;;;22.55;;
72284;SDS011;60220;53.552;10.092;2022-10-31T11:41:59;56.28;;;22.77;;
72284;SDS011;60220;53.552;10.092;2022-10-31T11:44:27;49.10;;;22.83;;
72284;SDS011;60220;53.552;10.092;2022-10-31T11:46:58;36.53;;;19.77;;
72284;SDS011;60220;53.552;10.092;2022-10-31T11:49:28;47.63;;;21.33;;
72284;SDS011;60220;53.552;10.092;2022-10-31T11:52:00;43.90;;;22.27;;
72284;SDS011;60220;53.552;10.092;2022-10-31T11:54:31;33.03;;;17.85;;
72284;SDS011;60220;53.552;10.092;2022-10-31T11:57:00;39.50;;;19.70;;
72284;SDS011;60220;53.552;10.092;2022-10-31T11:59:28;35.40;;;19.27;;
72284;SDS011;60220;53.552;10.092;2022-10-31T12:01:56;39.58;;;19.15;;
72284;SDS011;60220;53.552;10.092;2022-10-31T12:04:30;34.97;;;19.05;;
72284;SDS011;60220;53.552;10.092;2022-10-31T12:07:04;60.25;;;34.78;;
72284;SDS011;60220;53.552;10.092;2022-10-31T12:09:32;40.28;;;22.50;;
72284;SDS011;60220;53.552;10.092;2022-10-31T12:12:05;40.42;;;20.70;;
72284;SDS011;60220;53.552;10.092;2022-10-31T12:14:44;36.53;;;17.65;;
72284;SDS011;60220;53.552;10.092;2022-10-31T12:17:20;39.55;;;17.65;;
72284;SDS011;60220;53.552;10.092;2022-10-31T12:19:53;35.88;;;18.70;;
72284;SDS011;60220;53.552;10.092;2022-10-31T12:22:33;36.78;;;18.55;;
72284;SDS011;60220;53.552;10.092;2022-10-31T12:25:11;37.13;;;19.33;;
72284;SDS011;60220;53.552;10.092;2022-10-31T12:27:52;32.10;;;16.10;;
72284;SDS011;60220;53.552;10.092;2022-10-31T12:30:31;37.75;;;17.58;;
72284;SDS011;60220;53.552;10.092;2022-10-31T12:33:23;38.22;;;16.75;;
72284;SDS011;60220;53.552;10.092;2022-10-31T12:36:06;35.25;;;17.17;;
72284;SDS011;60220;53.552;10.092;2022-10-31T12:38:52;61.88;;;30.92;;
72284;SDS011;60220;53.552;10.092;2022-10-31T12:41:32;38.72;;;16.45;;
72284;SDS011;60220;53.552;10.092;2022-10-31T12:44:13;36.63;;;16.53;;
72284;SDS011;60220;53.552;10.092;2022-10-31T12:46:59;33.17;;;16.75;;
72284;SDS011;60220;53.552;10.092;2022-10-31T12:49:42;30.02;;;15.57;;
72284;SDS011;60220;53.552;10.092;2022-10-31T12:52:26;33.55;;;14.57;;
72284;SDS011;60220;53.552;10.092;2022-10-31T12:55:10;29.27;;;15.23;;
72284;SDS011;60220;53.552;10.092;2022-10-31T12:57:48;31.90;;;14.50;;
72284;SDS011;60220;53.552;10.092;2022-10-31T13:00:19;30.85;;;14.65;;
72284;SDS011;60220;53.552;10.092;2022-10-31T13:02:48;28.13;;;15.07;;
72284;SDS011;60220;53.552;10.092;2022-10-31T13:05:21;31.40;;;13.82;;
72284;SDS011;60220;53.552;10.092;2022-10-31T13:07:53;30.00;;;14.45;;
72284;SDS011;60220;53.552;10.092;2022-10-31T13:10:25;31.33;;;13.05;;
72284;SDS011;60220;53.552;10.092;2022-10-31T13:12:59;27.45;;;13.73;;
72284;SDS011;60220;53.552;10.092;2022-10-31T13:15:32;37.13;;;19.33;;
72284;SDS011;60220;53.552;10.092;2022-10-31T13:18:10;32.58;;;15.07;;
72284;SDS011;60220;53.552;10.092;2022-10-31T13:20:45;28.10;;;12.63;;
72284;SDS011;60220;53.552;10.092;2022-10-31T13:23:16;25.83;;;13.25;;
72284;SDS011;60220;53.552;10.092;2022-10-31T13:28:22;25.17;;;13.13;;
72284;SDS011;60220;53.552;10.092;2022-10-31T13:30:54;31.45;;;13.35;;
72284;SDS011;60220;53.552;10.092;2022-10-31T13:33:22;25.25;;;13.00;;
72284;SDS011;60220;53.552;10.092;2022-10-31T13:35:55;23.33;;;12.52;;
72284;SDS011;60220;53.552;10.092;2022-10-31T13:38:36;28.08;;;11.88;;
72284;SDS011;60220;53.552;10.092;2022-10-31T13:41:11;19.52;;;11.73;;
72284;SDS011;60220;53.552;10.092;2022-10-31T13:43:54;31.23;;;13.40;;
72284;SDS011;60220;53.552;10.092;2022-10-31T13:46:34;23.70;;;13.02;;
72284;SDS011;60220;53.552;10.092;2022-10-31T13:49:03;23.58;;;13.25;;
72284;SDS011;60220;53.552;10.092;2022-10-31T13:51:30;19.00;;;11.18;;
72284;SDS011;60220;53.552;10.092;2022-10-31T13:54:00;19.15;;;11.35;;
72284;SDS011;60220;53.552;10.092;2022-10-31T13:56:33;19.35;;;10.55;;
72284;SDS011;60220;53.552;10.092;2022-10-31T13:59:17;19.33;;;10.25;;
72284;SDS011;60220;53.552;10.092;2022-10-31T14:01:47;21.00;;;10.63;;
72284;SDS011;60220;53.552;10.092;2022-10-31T14:04:17;26.83;;;12.43;;
72284;SDS011;60220;53.552;10.092;2022-10-31T14:06:49;32.67;;;16.92;;
72284;SDS011;60220;53.552;10.092;2022-10-31T14:09:24;25.35;;;11.23;;
72284;SDS011;60220;53.552;10.092;2022-10-31T14:11:54;20.15;;;11.70;;
72284;SDS011;60220;53.552;10.092;2022-10-31T14:14:26;25.52;;;12.00;;
72284;SDS011;60220;53.552;10.092;2022-10-31T14:16:59;21.00;;;11.25;;
72284;SDS011;60220;53.552;10.092;2022-10-31T14:19:26;20.45;;;11.38;;
72284;SDS011;60220;53.552;10.092;2022-10-31T14:21:53;27.10;;;12.95;;
72284;SDS011;60220;53.552;10.092;2022-10-31T14:24:35;23.65;;;12.65;;
72284;SDS011;60220;53.552;10.092;2022-10-31T14:27:29;22.98;;;12.18;;
72284;SDS011;60220;53.552;10.092;2022-10-31T14:30:14;59.97;;;29.33;;
72284;SDS011;60220;53.552;10.092;2022-10-31T14:32:45;27.15;;;11.73;;
72284;SDS011;60220;53.552;10.092;2022-10-31T14:35:17;35.90;;;15.00;;
72284;SDS011;60220;53.552;10.092;2022-10-31T14:37:56;35.28;;;18.55;;
72284;SDS011;60220;53.552;10.092;2022-10-31T14:40:34;38.45;;;19.27;;
72284;SDS011;60220;53.552;10.092;2022-10-31T14:43:16;29.27;;;13.77;;